createdAt,value
2023-01-17T05:57:54.839Z,97096.22
2023-01-17T06:00:57.055Z,97096.69
2023-01-17T06:03:59.056Z,97098.91
2023-01-17T06:07:00.925Z,97093.44
2023-01-17T06:10:03.034Z,97077.31
2023-01-17T06:13:14.303Z,97080.13
2023-01-17T06:16:16.184Z,97077.31
2023-01-17T06:19:18.066Z,97084.88
2023-01-17T06:22:19.993Z,97101.78
2023-01-17T06:25:21.829Z,97089.03
2023-01-17T06:28:24.200Z,97097.59
2023-01-17T06:31:26.663Z,97084.75
2023-01-17T06:34:28.901Z,97099.59
2023-01-17T06:37:30.862Z,97126.59
2023-01-17T06:40:33.328Z,97121.88
2023-01-17T06:43:35.507Z,97111.41
2023-01-17T06:46:57.234Z,97112.66
2023-01-17T06:50:01.351Z,97110.56
2023-01-17T06:53:05.281Z,97109.88
2023-01-17T06:56:08.453Z,97119.72
2023-01-17T06:59:10.487Z,97109.53
2023-01-17T07:02:12.511Z,97110.16
2023-01-17T07:05:17.641Z,97109.31
2023-01-17T07:08:24.425Z,97115.34
2023-01-17T07:11:28.140Z,97117.75
2023-01-17T07:14:32.124Z,97124.03
2023-01-17T07:17:35.056Z,97118.94
2023-01-17T07:20:38.414Z,97133.69
2023-01-17T07:23:41.096Z,97138.88
2023-01-17T07:26:43.742Z,97130.44
2023-01-17T07:29:45.660Z,97134.13
2023-01-17T07:32:53.228Z,97135.28
2023-01-17T07:35:55.209Z,97140.19
2023-01-17T07:38:57.199Z,97136.47
2023-01-17T07:41:59.304Z,97142.94
2023-01-17T07:45:02.177Z,97145.50
2023-01-17T07:48:04.329Z,97147.94
2023-01-17T07:51:06.392Z,97132.38
2023-01-17T07:54:08.680Z,97161.00
2023-01-17T07:57:13.432Z,97162.19
2023-01-17T08:00:16.491Z,97163.19
2023-01-17T08:03:19.696Z,97160.75
2023-01-17T08:06:25.144Z,97170.00
2023-01-17T08:09:27.101Z,97166.81
2023-01-17T08:12:29.621Z,97169.44
2023-01-17T08:15:31.485Z,97175.75
2023-01-17T08:18:33.701Z,97170.31
2023-01-17T08:21:35.549Z,97174.38
2023-01-17T08:24:37.869Z,97171.00
2023-01-17T08:27:40.201Z,97178.31
2023-01-17T08:30:42.114Z,97181.59
2023-01-17T08:33:44.311Z,97189.19
2023-01-17T08:36:47.954Z,97193.31
2023-01-17T08:39:50.114Z,97203.19
2023-01-17T08:42:56.292Z,97197.06
2023-01-17T08:45:58.300Z,97202.53
2023-01-17T08:49:01.306Z,97204.69
2023-01-17T08:52:03.256Z,97205.72
2023-01-17T08:55:06.018Z,97200.28
2023-01-17T08:58:08.454Z,97193.44
2023-01-17T09:01:10.552Z,97209.66
2023-01-17T09:04:13.223Z,97195.16
2023-01-17T09:07:16.858Z,97186.41
2023-01-17T09:10:18.968Z,97193.34
2023-01-17T09:13:21.280Z,97193.75
2023-01-17T09:16:23.228Z,97205.22
2023-01-17T09:19:25.201Z,97204.59
2023-01-17T09:22:27.299Z,97198.59
2023-01-17T09:25:29.309Z,97190.59
2023-01-17T09:28:31.294Z,97183.31
2023-01-17T09:31:33.261Z,97195.50
2023-01-17T09:34:35.209Z,97199.44
2023-01-17T09:37:37.172Z,97205.94
2023-01-17T09:40:45.684Z,97214.13
2023-01-17T09:44:01.641Z,97221.63
2023-01-17T09:47:14.107Z,97226.25
2023-01-17T09:50:45.140Z,97222.13
2023-01-17T09:53:47.588Z,97224.69
2023-01-17T09:57:19.164Z,97234.22
2023-01-17T10:00:47.917Z,97232.09
2023-01-17T10:04:05.545Z,97239.47
2023-01-17T10:07:21.401Z,97249.41
2023-01-17T10:10:26.138Z,97250.34
2023-01-17T10:13:43.889Z,97259.34
2023-01-17T10:16:58.932Z,97251.34
2023-01-17T10:20:20.075Z,97253.78
2023-01-17T10:23:33.309Z,97264.00
2023-01-17T10:26:36.718Z,97269.53
2023-01-17T10:29:41.233Z,97264.84
2023-01-17T10:32:49.897Z,97265.66
2023-01-17T10:36:03.795Z,97271.16
2023-01-17T10:39:26.372Z,97278.63
2023-01-17T10:42:49.719Z,97275.19
2023-01-17T10:45:54.546Z,97279.25
2023-01-17T10:53:10.129Z,97288.31
2023-01-17T10:56:15.472Z,97294.69
2023-01-17T10:59:26.292Z,97292.81
2023-01-17T11:02:36.907Z,97286.81
2023-01-17T11:05:41.210Z,97290.75
2023-01-17T11:09:02.216Z,97296.44
2023-01-17T11:12:05.017Z,97283.75
2023-01-17T11:15:09.727Z,97291.81
2023-01-17T11:18:20.494Z,97288.19
2023-01-17T11:21:24.608Z,97281.31
2023-01-17T11:24:30.453Z,97274.97
2023-01-17T11:27:35.110Z,97264.88
2023-01-17T11:30:37.157Z,97276.44
2023-01-17T11:33:45.506Z,97273.94
2023-01-17T11:36:47.448Z,97270.69
2023-01-17T11:39:49.389Z,97278.31
2023-01-17T11:43:01.862Z,97276.63
2023-01-17T11:46:24.493Z,97272.47
2023-01-17T11:49:26.583Z,97272.38
2023-01-17T11:52:39.133Z,97277.06
2023-01-17T11:56:11.910Z,97275.56
2023-01-17T11:59:34.734Z,97272.75
2023-01-17T12:02:55.108Z,97270.91
2023-01-17T12:06:13.676Z,97256.72
2023-01-17T12:09:35.902Z,97232.44
2023-01-17T12:13:29.155Z,97249.13
2023-01-17T12:16:57.849Z,97248.47
2023-01-17T12:20:06.089Z,97247.16
2023-01-17T12:23:13.942Z,97256.63
2023-01-17T12:26:31.123Z,97266.09
2023-01-17T12:30:08.358Z,97264.38
2023-01-17T12:33:37.769Z,97263.28
2023-01-17T12:36:51.458Z,97262.31
2023-01-17T12:40:13.607Z,97252.38
2023-01-17T12:43:37.015Z,97272.47
2023-01-17T12:46:50.614Z,97271.56
2023-01-17T12:49:56.525Z,97270.38
2023-01-17T12:53:14.661Z,97278.00
2023-01-17T12:56:24.346Z,97288.97
2023-01-17T13:00:00.947Z,97292.53
2023-01-17T13:03:37.115Z,97305.78
2023-01-17T13:07:04.477Z,97308.59
2023-01-17T13:10:31.827Z,97314.16
2023-01-17T13:13:35.752Z,97317.66
2023-01-17T13:16:47.140Z,97327.06
2023-01-17T13:19:59.351Z,97326.28
2023-01-17T13:23:12.406Z,97331.53
2023-01-17T13:26:24.605Z,97328.84
2023-01-17T13:29:47.996Z,97328.03
2023-01-17T13:33:07.163Z,97335.94
2023-01-17T13:36:29.895Z,97337.34
2023-01-17T13:40:18.035Z,97344.94
2023-01-17T13:43:25.837Z,97347.91
2023-01-17T13:46:31.374Z,97345.03
2023-01-17T13:49:42.733Z,97346.56
2023-01-17T13:52:44.760Z,97345.38
2023-01-17T13:55:53.221Z,97354.56
2023-01-17T13:58:58.540Z,97364.72
2023-01-17T14:02:01.142Z,97358.34
2023-01-17T14:05:09.188Z,97359.19
2023-01-17T14:08:21.902Z,97363.16
2023-01-17T14:11:23.933Z,97365.66
2023-01-17T14:14:44.362Z,97355.09
2023-01-17T14:17:52.014Z,97366.31
2023-01-17T14:21:05.633Z,97371.19
2023-01-17T14:24:10.610Z,97382.16
2023-01-17T14:27:34.695Z,97363.59
2023-01-17T14:30:59.589Z,97385.91
2023-01-17T14:34:22.784Z,97395.00
2023-01-17T14:37:42.133Z,97400.47
2023-01-17T14:40:55.720Z,97401.63
2023-01-17T14:44:37.458Z,97405.69
2023-01-17T14:48:39.085Z,97403.34
2023-01-17T14:52:40.740Z,97400.78
2023-01-17T14:56:11.963Z,97395.47
2023-01-17T14:59:17.436Z,97395.81
2023-01-17T15:02:19.881Z,97389.41
2023-01-17T15:05:25.385Z,97398.13
2023-01-17T15:08:34.540Z,97392.69
2023-01-17T15:11:36.915Z,97385.56
2023-01-17T15:14:43.169Z,97375.47
2023-01-17T15:18:19.457Z,97366.16
2023-01-17T15:21:24.822Z,97351.75
2023-01-17T15:24:34.390Z,97341.63
2023-01-17T15:27:38.035Z,97336.06
2023-01-17T15:31:10.915Z,97327.69
2023-01-17T15:34:34.728Z,97331.50
2023-01-17T15:37:40.044Z,97312.59
2023-01-17T15:40:45.724Z,97312.38
2023-01-17T15:43:48.080Z,97306.44
2023-01-17T15:46:50.345Z,97302.16
2023-01-17T15:49:52.523Z,97301.78
2023-01-17T15:52:58.038Z,97297.75
2023-01-17T15:56:00.828Z,97298.78
2023-01-17T15:59:28.577Z,97311.22
2023-01-17T16:02:43.365Z,97317.38
2023-01-17T16:05:46.386Z,97320.03
2023-01-17T16:08:54.544Z,97329.44
2023-01-17T16:11:56.993Z,97325.34
2023-01-17T16:15:11.825Z,97332.19
2023-01-17T16:18:20.219Z,97332.88
2023-01-17T16:21:25.905Z,97334.59
2023-01-17T16:24:28.066Z,97331.31
2023-01-17T16:27:29.994Z,97331.69
2023-01-17T16:30:32.987Z,97328.06
2023-01-17T16:33:35.269Z,97320.28
2023-01-17T16:36:37.329Z,97319.78
2023-01-17T16:39:39.804Z,97300.09
2023-01-17T16:42:42.716Z,97299.41
2023-01-17T16:45:50.502Z,97293.56
2023-01-17T16:52:12.280Z,97297.75
2023-01-17T16:55:16.052Z,97301.66
2023-01-17T16:58:20.348Z,97292.47
2023-01-17T17:01:22.967Z,97281.56
2023-01-17T17:04:25.173Z,97279.84
2023-01-17T17:07:27.190Z,97278.41
2023-01-17T17:10:29.554Z,97284.25
2023-01-17T17:13:35.131Z,97274.03
2023-01-17T17:16:37.232Z,97282.03
2023-01-17T17:19:39.737Z,97286.81
2023-01-17T17:22:44.035Z,97280.97
2023-01-17T17:25:45.944Z,97276.59
2023-01-17T17:28:52.561Z,97278.06
2023-01-17T17:31:54.901Z,97268.47
2023-01-17T17:34:56.876Z,97258.97
2023-01-17T17:37:58.961Z,97249.44
2023-01-17T17:41:09.826Z,97253.97
2023-01-17T17:44:12.449Z,97232.28
2023-01-17T17:47:16.135Z,97238.31
2023-01-17T17:50:18.481Z,97228.81
2023-01-17T17:53:21.819Z,97228.13
2023-01-17T17:56:24.116Z,97226.59
2023-01-17T17:59:26.724Z,97231.69
2023-01-17T18:02:28.889Z,97216.75
2023-01-17T18:05:30.940Z,97212.59
2023-01-17T18:08:33.991Z,97214.09
2023-01-17T18:11:38.177Z,97206.44
2023-01-17T18:14:40.402Z,97202.84
2023-01-17T18:17:42.305Z,97202.97
2023-01-17T18:20:44.632Z,97202.50
2023-01-17T18:23:46.570Z,97207.47
2023-01-17T18:26:51.748Z,97199.13
2023-01-17T18:29:53.927Z,97199.63
2023-01-17T18:32:56.137Z,97187.44
2023-01-17T18:36:00.105Z,97182.22
2023-01-17T18:39:13.357Z,97180.59
2023-01-17T18:42:15.845Z,97175.34
2023-01-17T18:45:18.343Z,97175.25
2023-01-17T18:48:20.700Z,97159.34
2023-01-17T18:51:23.285Z,97140.91
2023-01-17T18:54:27.865Z,97134.41
2023-01-17T20:45:28.857Z,96838.56
2023-01-17T20:48:30.953Z,96841.13
2023-01-17T20:51:38.443Z,96792.09
2023-01-17T20:54:43.240Z,96778.78
2023-01-17T20:57:45.097Z,96767.63
2023-01-17T21:00:47.904Z,96755.25
2023-01-17T21:03:51.748Z,96757.56
2023-01-17T21:06:54.634Z,96740.88
2023-01-17T21:09:57.505Z,96729.44
2023-01-17T21:12:59.868Z,96709.66
2023-01-17T21:16:02.519Z,96706.28
2023-01-17T21:19:05.507Z,96704.38
2023-01-17T21:22:07.373Z,96696.31
2023-01-17T21:25:10.058Z,96697.78
2023-01-17T21:28:12.092Z,96680.69
2023-01-17T21:31:36.657Z,96692.81
2023-01-17T21:34:38.509Z,96680.44
2023-01-17T21:37:41.131Z,96656.88
2023-01-17T21:40:44.092Z,96650.28
2023-01-17T21:43:46.057Z,96675.59
2023-01-17T21:46:48.669Z,96670.88
2023-01-17T21:49:50.658Z,96658.22
2023-01-17T21:52:53.037Z,96648.38
2023-01-17T21:56:18.599Z,96665.72
2023-01-17T21:59:20.454Z,96670.88
2023-01-17T22:02:22.536Z,96627.50
2023-01-17T22:05:24.382Z,96619.56
2023-01-17T22:08:31.842Z,96607.16
2023-01-17T22:11:36.696Z,96614.00
2023-01-17T22:14:39.245Z,96608.72
2023-01-17T22:17:42.365Z,96613.59
2023-01-17T22:20:44.343Z,96608.31
2023-01-17T22:23:50.287Z,96597.69
2023-01-17T22:26:52.097Z,96592.69
2023-01-17T22:29:54.202Z,96585.00
2023-01-17T22:32:57.234Z,96595.25
2023-01-17T22:35:59.584Z,96583.63
2023-01-17T22:39:01.841Z,96566.78
2023-01-17T22:42:03.930Z,96559.75
2023-01-17T22:45:10.433Z,96566.06
2023-01-17T22:48:12.302Z,96557.69
2023-01-17T22:51:16.860Z,96558.78
2023-01-17T22:54:19.550Z,96549.63
2023-01-17T22:57:23.155Z,96547.41
2023-01-17T23:00:25.136Z,96562.66
2023-01-17T23:03:27.338Z,96566.69
2023-01-17T23:06:34.313Z,96557.19
2023-01-17T23:09:36.805Z,96542.59
2023-01-17T23:12:39.102Z,96552.66
2023-01-17T23:15:59.160Z,96542.16
2023-01-17T23:19:19.701Z,96543.41
2023-01-17T23:22:24.078Z,96537.47
2023-01-17T23:25:25.933Z,96536.38
2023-01-17T23:28:27.756Z,96533.00
2023-01-17T23:31:29.669Z,96542.59
2023-01-17T23:34:31.485Z,96536.66
2023-01-17T23:37:51.693Z,96536.75
2023-01-17T23:41:17.424Z,96526.56
2023-01-17T23:44:19.312Z,96519.25
2023-01-17T23:47:21.272Z,96529.47
2023-01-17T23:50:23.244Z,96528.56
2023-01-17T23:53:26.131Z,96532.69
2023-01-17T23:56:28.053Z,96530.16
2023-01-17T23:59:30.236Z,96526.56
